createdAt,value
2018-03-20T00:00:18.253Z,1021.43
2018-03-20T00:01:18.834Z,1021.46
2018-03-20T00:02:19.453Z,1021.49
2018-03-20T00:03:20.029Z,1021.41
2018-03-20T00:04:20.603Z,1021.40
2018-03-20T00:05:21.180Z,1021.52
2018-03-20T00:06:21.806Z,1021.44
2018-03-20T00:07:22.432Z,1021.41
2018-03-20T00:08:23.008Z,1021.39
2018-03-20T00:09:23.585Z,1021.40
2018-03-20T00:10:24.315Z,1021.40
2018-03-20T00:11:24.885Z,1021.42
2018-03-20T00:12:25.462Z,1021.37
2018-03-20T00:13:26.040Z,1021.33
2018-03-20T00:14:26.618Z,1021.30
2018-03-20T00:15:27.197Z,1021.38
2018-03-20T00:16:27.776Z,1021.34
2018-03-20T00:17:28.354Z,1021.37
2018-03-20T00:18:28.930Z,1021.35
2018-03-20T00:19:29.506Z,1021.35
2018-03-20T00:20:30.085Z,1021.37
2018-03-20T00:21:30.757Z,1021.33
2018-03-20T00:22:31.332Z,1021.34
2018-03-20T00:23:31.907Z,1021.39
2018-03-20T00:24:32.484Z,1021.34
2018-03-20T00:25:33.109Z,1021.35
2018-03-20T00:26:33.694Z,1021.33
2018-03-20T00:27:34.263Z,1021.40
2018-03-20T00:28:34.848Z,1021.35
2018-03-20T00:29:35.420Z,1021.42
2018-03-20T00:30:36.198Z,1021.43
2018-03-20T00:31:36.973Z,1021.38
2018-03-20T00:32:37.650Z,1021.47
2018-03-20T00:33:38.226Z,1021.56
2018-03-20T00:34:38.805Z,1021.59
2018-03-20T00:35:39.382Z,1021.63
2018-03-20T00:36:39.958Z,1021.71
2018-03-20T00:37:40.576Z,1021.64
2018-03-20T00:38:41.151Z,1021.64
2018-03-20T00:39:41.727Z,1021.62
2018-03-20T00:40:42.303Z,1021.59
2018-03-20T00:41:42.879Z,1021.51
2018-03-20T00:42:43.457Z,1021.47
2018-03-20T00:43:44.036Z,1021.47
2018-03-20T00:44:44.612Z,1021.49
2018-03-20T00:45:45.240Z,1021.49
2018-03-20T00:46:45.815Z,1021.48
2018-03-20T00:47:46.392Z,1021.53
2018-03-20T00:48:47.018Z,1021.54
2018-03-20T00:49:47.600Z,1021.35
2018-03-20T00:50:48.176Z,1021.43
2018-03-20T00:51:48.751Z,1021.49
2018-03-20T00:52:49.326Z,1021.42
2018-03-20T00:53:49.954Z,1021.42
2018-03-20T00:54:50.532Z,1021.44
2018-03-20T00:55:51.110Z,1021.47
2018-03-20T00:56:51.687Z,1021.45
2018-03-20T00:57:52.264Z,1021.48
2018-03-20T00:58:52.840Z,1021.48
2018-03-20T00:59:53.416Z,1021.44
2018-03-20T01:00:53.994Z,1021.39
2018-03-20T01:01:54.568Z,1021.46
2018-03-20T01:02:55.196Z,1021.47
2018-03-20T01:03:55.777Z,1021.43
2018-03-20T01:04:56.498Z,1021.44
2018-03-20T01:05:57.073Z,1021.48
2018-03-20T01:06:57.648Z,1021.45
2018-03-20T01:07:58.223Z,1021.51
2018-03-20T01:08:58.848Z,1021.56
2018-03-20T01:09:59.423Z,1021.59
2018-03-20T01:11:00.009Z,1021.51
2018-03-20T01:12:00.579Z,1021.56
2018-03-20T01:13:01.155Z,1021.55
2018-03-20T01:14:01.732Z,1021.52
2018-03-20T01:15:02.307Z,1021.57
2018-03-20T01:16:02.932Z,1021.58
2018-03-20T01:17:03.511Z,1021.57
2018-03-20T01:18:04.089Z,1021.55
2018-03-20T01:19:04.721Z,1021.53
2018-03-20T01:20:05.292Z,1021.51
2018-03-20T01:21:05.866Z,1021.52
2018-03-20T01:22:06.441Z,1021.51
2018-03-20T01:23:07.067Z,1021.53
2018-03-20T01:24:07.792Z,1021.51
2018-03-20T01:25:08.367Z,1021.50
2018-03-20T01:26:08.944Z,1021.53
2018-03-20T01:27:09.520Z,1021.54
2018-03-20T01:28:10.097Z,1021.56
2018-03-20T01:29:10.672Z,1021.69
2018-03-20T01:30:11.247Z,1021.57
2018-03-20T01:31:11.973Z,1021.44
2018-03-20T01:32:12.550Z,1021.51
2018-03-20T01:33:13.126Z,1021.48
2018-03-20T01:34:13.702Z,1021.47
2018-03-20T01:35:14.278Z,1021.47
2018-03-20T01:36:14.856Z,1021.35
2018-03-20T01:37:15.434Z,1021.37
2018-03-20T01:38:16.012Z,1021.44
2018-03-20T01:39:16.588Z,1021.41
2018-03-20T01:40:17.316Z,1021.45
2018-03-20T01:41:17.891Z,1021.41
2018-03-20T01:42:18.466Z,1021.46
2018-03-20T01:43:19.094Z,1021.44
2018-03-20T01:44:19.672Z,1021.44
2018-03-20T01:45:20.249Z,1021.45
2018-03-20T01:46:20.824Z,1021.45
2018-03-20T01:47:21.452Z,1021.53
2018-03-20T01:48:22.029Z,1021.45
2018-03-20T01:49:22.606Z,1021.40
2018-03-20T01:50:23.183Z,1021.44
2018-03-20T01:51:23.756Z,1021.46
2018-03-20T01:52:24.331Z,1021.51
2018-03-20T01:53:24.912Z,1021.56
2018-03-20T01:54:25.541Z,1021.47
2018-03-20T01:55:26.058Z,1021.47
2018-03-20T01:56:26.632Z,1021.46
2018-03-20T01:57:27.213Z,1021.52
2018-03-20T01:58:27.789Z,1021.48
2018-03-20T01:59:28.409Z,1021.50
2018-03-20T02:00:28.986Z,1021.48
2018-03-20T02:01:29.564Z,1021.54
2018-03-20T02:02:30.142Z,1021.50
2018-03-20T02:03:30.768Z,1021.46
2018-03-20T02:04:31.342Z,1021.45
2018-03-20T02:05:31.971Z,1021.48
2018-03-20T02:06:32.546Z,1021.48
2018-03-20T02:07:33.122Z,1021.50
2018-03-20T02:08:33.700Z,1021.52
2018-03-20T02:09:34.275Z,1021.46
2018-03-20T02:10:34.854Z,1021.54
2018-03-20T02:11:35.480Z,1021.54
2018-03-20T02:12:36.108Z,1021.49
2018-03-20T02:13:36.684Z,1021.56
2018-03-20T02:14:37.262Z,1021.45
2018-03-20T02:15:37.890Z,1021.56
2018-03-20T02:16:38.463Z,1021.48
2018-03-20T02:17:39.039Z,1021.50
2018-03-20T02:18:39.613Z,1021.51
2018-03-20T02:19:40.189Z,1021.40
2018-03-20T02:20:40.814Z,1021.52
2018-03-20T02:21:41.392Z,1021.42
2018-03-20T02:22:41.968Z,1021.40
2018-03-20T02:23:42.545Z,1021.39
2018-03-20T02:24:43.122Z,1021.42
2018-03-20T02:25:43.697Z,1021.39
2018-03-20T02:26:44.272Z,1021.31
2018-03-20T02:27:44.852Z,1021.29
2018-03-20T02:28:45.424Z,1021.34
2018-03-20T02:29:46.048Z,1021.35
2018-03-20T02:30:46.624Z,1021.43
2018-03-20T02:31:47.200Z,1021.45
2018-03-20T02:32:47.832Z,1021.49
2018-03-20T02:33:48.398Z,1021.42
2018-03-20T02:34:48.972Z,1021.47
2018-03-20T02:35:49.549Z,1021.50
2018-03-20T02:36:50.174Z,1021.47
2018-03-20T02:37:50.791Z,1021.44
2018-03-20T02:38:51.371Z,1021.39
2018-03-20T02:39:51.943Z,1021.49
2018-03-20T02:40:52.521Z,1021.42
2018-03-20T02:41:53.100Z,1021.40
2018-03-20T02:42:53.674Z,1021.43
2018-03-20T02:43:54.256Z,1021.42
2018-03-20T02:44:54.827Z,1021.45
2018-03-20T02:45:55.403Z,1021.47
2018-03-20T02:46:55.979Z,1021.40
2018-03-20T02:47:56.608Z,1021.47
2018-03-20T02:48:57.234Z,1021.40
2018-03-20T02:49:57.817Z,1021.39
2018-03-20T02:50:58.388Z,1021.36
2018-03-20T02:51:58.965Z,1021.40
2018-03-20T02:52:59.545Z,1021.42
2018-03-20T02:54:00.120Z,1021.36
2018-03-20T02:55:00.696Z,1021.32
2018-03-20T02:56:01.271Z,1021.29
2018-03-20T02:57:01.848Z,1021.34
2018-03-20T02:58:02.475Z,1021.26
2018-03-20T02:59:03.052Z,1021.33
2018-03-20T03:00:03.627Z,1021.34
2018-03-20T03:01:04.203Z,1021.32
2018-03-20T03:02:04.779Z,1021.26
2018-03-20T03:03:05.355Z,1021.23
2018-03-20T03:04:05.932Z,1021.25
2018-03-20T03:05:06.505Z,1021.22
2018-03-20T03:06:07.232Z,1021.20
2018-03-20T03:07:07.808Z,1021.20
2018-03-20T03:08:08.425Z,1021.11
2018-03-20T03:09:08.961Z,1021.08
2018-03-20T03:10:09.587Z,1021.20
2018-03-20T03:11:10.166Z,1021.14
2018-03-20T03:12:10.738Z,1021.15
2018-03-20T03:13:11.320Z,1021.14
2018-03-20T03:14:11.897Z,1021.11
2018-03-20T03:15:12.625Z,1021.15
2018-03-20T03:16:13.201Z,1021.07
2018-03-20T03:17:13.777Z,1021.14
2018-03-20T03:18:14.353Z,1021.27
2018-03-20T03:19:14.927Z,1021.29
2018-03-20T03:20:15.505Z,1021.25
2018-03-20T03:21:16.080Z,1021.25
2018-03-20T03:22:16.706Z,1021.06
2018-03-20T03:23:17.284Z,1021.04
2018-03-20T03:24:17.860Z,1021.06
2018-03-20T03:25:18.437Z,1021.13
2018-03-20T03:26:19.213Z,1021.11
2018-03-20T03:27:19.790Z,1021.04
2018-03-20T03:28:20.366Z,1021.10
2018-03-20T03:29:20.942Z,1021.15
2018-03-20T03:30:21.568Z,1021.19
2018-03-20T03:31:22.199Z,1021.14
2018-03-20T03:32:22.813Z,1021.14
2018-03-20T03:33:23.391Z,1021.10
2018-03-20T03:34:23.967Z,1021.15
2018-03-20T03:35:24.538Z,1021.12
2018-03-20T03:36:25.113Z,1021.13
2018-03-20T03:37:25.697Z,1021.23
2018-03-20T03:38:26.266Z,1021.17
2018-03-20T03:39:26.840Z,1021.12
2018-03-20T03:40:27.417Z,1021.16
2018-03-20T03:41:27.993Z,1021.16
2018-03-20T03:42:28.570Z,1021.06
2018-03-20T03:43:29.148Z,1021.13
2018-03-20T03:44:29.723Z,1021.11
2018-03-20T03:45:30.303Z,1021.10
2018-03-20T03:46:30.927Z,1021.11
2018-03-20T03:47:31.554Z,1021.16
2018-03-20T03:48:32.282Z,1021.08
2018-03-20T03:49:32.860Z,1021.13
2018-03-20T03:50:33.433Z,1021.17
2018-03-20T03:51:34.009Z,1021.12
2018-03-20T03:52:34.584Z,1021.11
2018-03-20T03:53:35.159Z,1021.17
2018-03-20T03:54:35.789Z,1021.10
2018-03-20T03:55:36.361Z,1021.12
2018-03-20T03:56:36.937Z,1021.14
2018-03-20T03:57:37.516Z,1021.09
2018-03-20T03:58:38.091Z,1021.16
2018-03-20T03:59:38.665Z,1021.12
2018-03-20T04:00:39.241Z,1021.11
2018-03-20T04:01:39.868Z,1021.11
2018-03-20T04:02:40.444Z,1021.08
2018-03-20T04:03:41.021Z,1021.09
2018-03-20T04:04:41.688Z,1021.14
2018-03-20T04:05:42.264Z,1021.19
2018-03-20T04:06:42.891Z,1021.24
2018-03-20T04:07:43.465Z,1021.14
2018-03-20T04:08:44.042Z,1021.19
2018-03-20T04:09:44.616Z,1021.06
2018-03-20T04:10:45.192Z,1021.11
2018-03-20T04:11:45.769Z,1021.03
2018-03-20T04:12:46.386Z,1021.15
2018-03-20T04:13:46.962Z,1021.20
2018-03-20T04:14:47.539Z,1021.21
2018-03-20T04:15:48.117Z,1021.21
2018-03-20T04:16:48.692Z,1021.16
2018-03-20T04:17:49.270Z,1021.20
2018-03-20T04:18:49.902Z,1021.10
2018-03-20T04:19:50.473Z,1021.14
2018-03-20T04:20:51.052Z,1021.09
2018-03-20T04:21:51.677Z,1021.19
2018-03-20T04:22:52.304Z,1021.18
2018-03-20T04:23:52.883Z,1021.18
2018-03-20T04:24:53.466Z,1021.17
2018-03-20T04:25:54.044Z,1021.09
2018-03-20T04:26:54.622Z,1021.17
2018-03-20T04:27:55.249Z,1021.15
2018-03-20T04:28:55.824Z,1021.18
2018-03-20T04:29:56.400Z,1021.11
2018-03-20T04:30:56.976Z,1021.11
2018-03-20T04:31:57.552Z,1021.14
2018-03-20T04:32:58.131Z,1021.24
2018-03-20T04:33:58.711Z,1021.14
2018-03-20T04:34:59.280Z,1021.23
2018-03-20T04:35:59.855Z,1021.22
2018-03-20T04:37:00.431Z,1021.28
2018-03-20T04:38:01.059Z,1021.26
2018-03-20T04:39:01.637Z,1021.32
2018-03-20T04:40:02.263Z,1021.32
2018-03-20T04:41:02.889Z,1021.36
2018-03-20T04:42:03.465Z,1021.29
2018-03-20T04:43:04.041Z,1021.29
2018-03-20T04:44:04.620Z,1021.26
2018-03-20T04:45:05.251Z,1021.27
2018-03-20T04:46:05.865Z,1021.32
2018-03-20T04:47:06.442Z,1021.32
2018-03-20T04:48:07.016Z,1021.19
2018-03-20T04:49:07.592Z,1021.28
2018-03-20T04:50:08.169Z,1021.32
2018-03-20T04:51:08.800Z,1021.30
2018-03-20T04:52:09.419Z,1021.18
2018-03-20T04:53:09.998Z,1021.29
2018-03-20T04:54:10.572Z,1021.24
2018-03-20T04:55:11.148Z,1021.32
2018-03-20T04:56:11.882Z,1021.31
2018-03-20T04:57:12.490Z,1021.32
2018-03-20T04:58:13.118Z,1021.43
2018-03-20T04:59:13.774Z,1021.34
2018-03-20T05:00:14.329Z,1021.27
2018-03-20T05:01:14.896Z,1021.42
2018-03-20T05:02:15.477Z,1021.38
2018-03-20T05:03:16.048Z,1021.38
2018-03-20T05:04:16.625Z,1021.38
2018-03-20T05:05:17.204Z,1021.43
2018-03-20T05:06:17.778Z,1021.42
2018-03-20T05:07:18.358Z,1021.46
2018-03-20T05:08:18.935Z,1021.50
2018-03-20T05:09:19.509Z,1021.49
2018-03-20T05:10:20.083Z,1021.43
2018-03-20T05:11:20.658Z,1021.40
2018-03-20T05:12:21.382Z,1021.45
2018-03-20T05:13:21.957Z,1021.54
2018-03-20T05:14:22.533Z,1021.54
2018-03-20T05:15:23.111Z,1021.51
2018-03-20T05:16:23.686Z,1021.41
2018-03-20T05:17:24.261Z,1021.57
2018-03-20T05:18:24.887Z,1021.62
2018-03-20T05:19:25.511Z,1021.55
2018-03-20T05:20:26.085Z,1021.55
2018-03-20T05:21:26.660Z,1021.58
2018-03-20T05:22:27.238Z,1021.55
2018-03-20T05:23:27.855Z,1021.59
2018-03-20T05:24:28.433Z,1021.56
2018-03-20T05:25:29.009Z,1021.54
2018-03-20T05:26:29.586Z,1021.51
2018-03-20T05:27:30.163Z,1021.46
2018-03-20T05:28:30.740Z,1021.46
2018-03-20T05:29:31.316Z,1021.48
2018-03-20T05:30:31.944Z,1021.62
2018-03-20T05:31:32.518Z,1021.63
2018-03-20T05:32:33.092Z,1021.63
2018-03-20T05:33:33.718Z,1021.60
2018-03-20T05:34:34.295Z,1021.67
2018-03-20T05:35:34.871Z,1021.67
2018-03-20T05:36:35.497Z,1021.66
2018-03-20T05:37:36.074Z,1021.61
2018-03-20T05:38:36.649Z,1021.72
2018-03-20T05:39:37.228Z,1021.64
2018-03-20T05:40:37.802Z,1021.64
2018-03-20T05:41:38.430Z,1021.68
2018-03-20T05:42:39.005Z,1021.69
2018-03-20T05:43:39.582Z,1021.73
2018-03-20T05:44:40.161Z,1021.71
2018-03-20T05:45:40.734Z,1021.72
2018-03-20T05:46:41.298Z,1021.65
2018-03-20T05:47:41.917Z,1021.72
2018-03-20T05:48:42.484Z,1021.69
2018-03-20T05:49:43.053Z,1021.61
2018-03-20T05:50:43.672Z,1021.69
2018-03-20T05:51:44.242Z,1021.63
2018-03-20T05:52:44.812Z,1021.73
2018-03-20T05:53:45.434Z,1021.70
2018-03-20T05:54:45.999Z,1021.65
2018-03-20T05:55:46.569Z,1021.71
2018-03-20T05:56:47.188Z,1021.79
2018-03-20T05:57:47.758Z,1021.81
2018-03-20T05:58:48.328Z,1021.70
2018-03-20T05:59:48.897Z,1021.77
2018-03-20T06:00:49.467Z,1021.72
2018-03-20T06:01:50.037Z,1021.76
2018-03-20T06:02:50.647Z,1021.78
2018-03-20T06:03:51.217Z,1021.80
2018-03-20T06:04:51.839Z,1021.83
2018-03-20T06:05:52.409Z,1021.86
2018-03-20T06:06:52.980Z,1021.92
2018-03-20T06:07:53.551Z,1021.88
2018-03-20T06:08:54.121Z,1021.94
2018-03-20T06:09:54.742Z,1021.96
2018-03-20T06:10:55.313Z,1021.99
2018-03-20T06:11:56.038Z,1022.02
2018-03-20T06:12:56.605Z,1022.00
2018-03-20T06:13:57.176Z,1022.06
2018-03-20T06:14:57.744Z,1022.04
2018-03-20T06:15:58.316Z,1022.05
2018-03-20T06:16:58.886Z,1022.04
2018-03-20T06:17:59.457Z,1022.14
2018-03-20T06:19:00.030Z,1022.03
2018-03-20T06:20:00.600Z,1022.07
2018-03-20T06:21:01.170Z,1022.01
2018-03-20T06:22:01.836Z,1022.04
2018-03-20T06:23:02.404Z,1022.03
2018-03-20T06:24:02.977Z,1022.16
2018-03-20T06:25:03.549Z,1022.12
2018-03-20T06:26:04.119Z,1022.08
2018-03-20T06:27:04.691Z,1022.11
2018-03-20T06:28:05.266Z,1022.05
2018-03-20T06:29:05.886Z,1022.12
2018-03-20T06:30:06.457Z,1022.11
2018-03-20T06:31:07.077Z,1022.08
2018-03-20T06:32:07.697Z,1022.17
2018-03-20T06:33:08.268Z,1022.07
2018-03-20T06:34:08.839Z,1022.02
2018-03-20T06:35:09.461Z,1022.02
2018-03-20T06:36:10.031Z,1022.14
2018-03-20T06:37:10.603Z,1022.14
2018-03-20T06:38:11.181Z,1022.10
2018-03-20T06:39:11.743Z,1022.10
2018-03-20T06:40:12.314Z,1022.12
2018-03-20T06:41:12.887Z,1022.15
2018-03-20T06:42:13.458Z,1022.06
2018-03-20T06:43:14.028Z,1022.15
2018-03-20T06:44:14.600Z,1022.15
2018-03-20T06:45:15.172Z,1022.09
2018-03-20T06:46:15.741Z,1022.20
2018-03-20T06:47:16.464Z,1022.08
2018-03-20T06:48:17.037Z,1022.15
2018-03-20T06:49:17.607Z,1022.15
2018-03-20T06:50:18.183Z,1022.20
2018-03-20T06:51:18.843Z,1022.25
2018-03-20T06:52:19.412Z,1022.19
2018-03-20T06:53:19.986Z,1022.31
2018-03-20T06:54:20.558Z,1022.21
2018-03-20T06:55:21.277Z,1022.28
2018-03-20T06:56:21.849Z,1022.28
2018-03-20T06:57:22.419Z,1022.27
2018-03-20T06:58:22.991Z,1022.22
2018-03-20T06:59:23.612Z,1022.24
2018-03-20T07:00:24.176Z,1022.28
2018-03-20T07:01:24.752Z,1022.23
2018-03-20T07:02:25.318Z,1022.29
2018-03-20T07:03:25.940Z,1022.28
2018-03-20T07:04:26.512Z,1022.25
2018-03-20T07:05:27.082Z,1022.28
2018-03-20T07:06:27.652Z,1022.23
2018-03-20T07:07:28.222Z,1022.30
2018-03-20T07:08:28.793Z,1022.33
2018-03-20T07:09:29.363Z,1022.31
2018-03-20T07:10:29.983Z,1022.39
2018-03-20T07:11:30.555Z,1022.36
2018-03-20T07:12:31.218Z,1022.37
2018-03-20T07:13:31.790Z,1022.39
2018-03-20T07:14:32.402Z,1022.30
2018-03-20T07:15:32.973Z,1022.29
2018-03-20T07:16:33.544Z,1022.34
2018-03-20T07:17:34.114Z,1022.34
2018-03-20T07:18:34.687Z,1022.40
2018-03-20T07:19:35.258Z,1022.32
2018-03-20T07:20:35.828Z,1022.32
2018-03-20T07:21:36.400Z,1022.40
2018-03-20T07:22:37.058Z,1022.39
2018-03-20T07:23:37.593Z,1022.39
2018-03-20T07:24:38.165Z,1022.38
2018-03-20T07:25:38.785Z,1022.46
2018-03-20T07:26:39.359Z,1022.35
2018-03-20T07:27:39.970Z,1022.35
2018-03-20T07:28:40.544Z,1022.44
2018-03-20T07:29:41.116Z,1022.46
2018-03-20T07:30:41.839Z,1022.41
2018-03-20T07:31:42.451Z,1022.39
2018-03-20T07:32:43.022Z,1022.33
2018-03-20T07:33:43.592Z,1022.39
2018-03-20T07:34:44.217Z,1022.36
2018-03-20T07:35:44.827Z,1022.46
2018-03-20T07:36:45.397Z,1022.43
2018-03-20T07:37:46.018Z,1022.36
2018-03-20T07:38:46.587Z,1022.36
2018-03-20T07:39:47.160Z,1022.38
2018-03-20T07:40:47.733Z,1022.40
2018-03-20T07:41:48.353Z,1022.42
2018-03-20T07:42:48.923Z,1022.45
2018-03-20T07:43:49.493Z,1022.44
2018-03-20T07:44:50.064Z,1022.48
2018-03-20T07:45:50.633Z,1022.58
2018-03-20T07:46:51.253Z,1022.55
2018-03-20T07:47:51.874Z,1022.56
2018-03-20T07:48:52.445Z,1022.52
2018-03-20T07:49:53.017Z,1022.56
2018-03-20T07:50:53.638Z,1022.62
2018-03-20T07:51:54.210Z,1022.62
2018-03-20T07:52:54.781Z,1022.68
2018-03-20T07:53:55.352Z,1022.59
2018-03-20T07:54:55.924Z,1022.59
2018-03-20T07:55:56.495Z,1022.68
2018-03-20T07:56:57.118Z,1022.73
2018-03-20T07:57:57.690Z,1022.70
2018-03-20T07:58:58.308Z,1022.81
2018-03-20T07:59:58.878Z,1022.84
2018-03-20T08:00:59.448Z,1022.95
2018-03-20T08:02:00.020Z,1022.90
2018-03-20T08:03:00.590Z,1022.89
2018-03-20T08:04:01.159Z,1023.09
2018-03-20T08:05:01.781Z,1023.06
2018-03-20T08:06:02.352Z,1023.05
2018-03-20T08:07:02.922Z,1023.06
2018-03-20T08:08:03.493Z,1023.15
2018-03-20T08:09:04.062Z,1023.20
2018-03-20T08:10:04.633Z,1023.22
2018-03-20T08:11:05.204Z,1023.21
2018-03-20T08:12:05.774Z,1023.19
2018-03-20T08:13:06.434Z,1023.21
2018-03-20T08:14:07.018Z,1023.27
2018-03-20T08:15:07.590Z,1023.32
2018-03-20T08:16:08.160Z,1023.32
2018-03-20T08:17:08.730Z,1023.32
2018-03-20T08:18:09.302Z,1023.32
2018-03-20T08:19:09.902Z,1023.39
2018-03-20T08:20:10.445Z,1023.33
2018-03-20T08:21:11.015Z,1023.44
2018-03-20T08:22:11.587Z,1023.39
2018-03-20T08:23:12.162Z,1023.46
2018-03-20T08:24:12.730Z,1023.54
2018-03-20T08:25:13.300Z,1023.48
2018-03-20T08:26:13.923Z,1023.60
2018-03-20T08:27:14.496Z,1023.58
2018-03-20T08:28:15.109Z,1023.59
2018-03-20T08:29:15.702Z,1023.66
2018-03-20T08:30:16.252Z,1023.67
2018-03-20T08:31:16.874Z,1023.73
2018-03-20T08:32:17.593Z,1023.68
2018-03-20T08:33:18.165Z,1023.76
2018-03-20T08:34:18.789Z,1023.78
2018-03-20T08:35:19.360Z,1023.81
2018-03-20T08:36:19.933Z,1023.82
2018-03-20T08:37:20.505Z,1023.91
2018-03-20T08:38:21.077Z,1023.98
2018-03-20T08:39:21.646Z,1023.98
2018-03-20T08:40:22.218Z,1023.93
2018-03-20T08:41:22.791Z,1024.03
2018-03-20T08:42:23.359Z,1024.09
2018-03-20T08:43:23.932Z,1024.11
2018-03-20T08:44:24.508Z,1024.17
2018-03-20T08:45:25.076Z,1024.18
2018-03-20T08:46:25.694Z,1024.13
2018-03-20T08:47:26.266Z,1024.16
2018-03-20T08:48:26.838Z,1024.19
2018-03-20T08:49:27.412Z,1024.18
2018-03-20T08:50:27.983Z,1024.12
2018-03-20T08:51:28.555Z,1024.05
2018-03-20T08:52:29.180Z,1023.99
2018-03-20T08:53:29.751Z,1024.14
2018-03-20T08:54:30.376Z,1024.16
2018-03-20T08:55:30.946Z,1024.22
2018-03-20T08:56:31.519Z,1024.16
2018-03-20T08:57:32.090Z,1024.16
2018-03-20T08:58:32.661Z,1024.16
2018-03-20T08:59:33.235Z,1024.17
2018-03-20T09:00:33.845Z,1024.08
2018-03-20T09:01:34.380Z,1024.12
2018-03-20T09:02:34.952Z,1024.01
2018-03-20T09:03:35.522Z,1024.02
2018-03-20T09:04:36.145Z,1024.05
2018-03-20T09:05:36.717Z,1023.94
2018-03-20T09:06:37.293Z,1024.03
2018-03-20T09:07:37.862Z,1024.03
2018-03-20T09:08:38.436Z,1024.15
2018-03-20T09:09:39.008Z,1024.09
2018-03-20T09:10:39.628Z,1024.15
2018-03-20T09:11:40.212Z,1024.14
2018-03-20T09:12:40.772Z,1024.13
2018-03-20T09:13:41.396Z,1024.20
2018-03-20T09:14:41.969Z,1024.19
2018-03-20T09:15:42.548Z,1024.28
2018-03-20T09:16:43.114Z,1024.26
2018-03-20T09:17:43.684Z,1024.30
2018-03-20T09:18:44.305Z,1024.30
2018-03-20T09:19:44.880Z,1024.28
2018-03-20T09:20:45.450Z,1024.29
2018-03-20T09:21:46.022Z,1024.29
2018-03-20T09:22:46.592Z,1024.31
2018-03-20T09:23:47.164Z,1024.34
2018-03-20T09:24:47.783Z,1024.35
2018-03-20T09:25:48.358Z,1024.41
2018-03-20T09:26:49.079Z,1024.44
2018-03-20T09:27:49.651Z,1024.43
2018-03-20T09:28:50.223Z,1024.48
2018-03-20T09:29:50.832Z,1024.49
2018-03-20T09:30:51.369Z,1024.49
2018-03-20T09:31:51.941Z,1024.54
2018-03-20T09:32:52.564Z,1024.47
2018-03-20T09:33:53.190Z,1024.66
2018-03-20T09:34:53.803Z,1024.52
2018-03-20T09:35:54.378Z,1024.62
2018-03-20T09:36:54.951Z,1024.73
2018-03-20T09:37:55.522Z,1024.70
2018-03-20T09:38:56.095Z,1024.72
2018-03-20T09:39:56.673Z,1024.68
2018-03-20T09:40:57.246Z,1024.66
2018-03-20T09:41:57.819Z,1024.68
2018-03-20T09:42:58.542Z,1024.77
2018-03-20T09:43:59.164Z,1024.81
2018-03-20T09:44:59.734Z,1024.82
2018-03-20T09:46:00.309Z,1025.03
2018-03-20T09:47:00.922Z,1024.88
2018-03-20T09:48:01.494Z,1024.93
2018-03-20T09:49:02.112Z,1024.81
2018-03-20T09:50:02.690Z,1024.90
2018-03-20T09:51:03.263Z,1024.87
2018-03-20T09:52:03.836Z,1024.98
2018-03-20T09:53:04.456Z,1024.96
2018-03-20T09:54:05.077Z,1025.03
2018-03-20T09:55:05.698Z,1025.05
2018-03-20T09:56:06.269Z,1025.05
2018-03-20T09:57:06.840Z,1025.11
2018-03-20T09:58:07.413Z,1025.05
2018-03-20T09:59:07.986Z,1025.00
2018-03-20T10:00:08.612Z,1024.95
2018-03-20T10:01:09.224Z,1024.91
2018-03-20T10:02:09.794Z,1024.91
2018-03-20T10:03:10.419Z,1024.96
2018-03-20T10:04:10.986Z,1025.00
2018-03-20T10:05:11.557Z,1025.09
2018-03-20T10:06:12.127Z,1025.00
2018-03-20T10:07:12.699Z,1025.13
2018-03-20T10:08:13.271Z,1025.11
2018-03-20T10:09:13.846Z,1025.12
2018-03-20T10:10:14.459Z,1025.23
2018-03-20T10:11:15.083Z,1025.26
2018-03-20T10:12:15.698Z,1025.30
2018-03-20T10:13:16.271Z,1025.24
2018-03-20T10:14:16.842Z,1025.17
2018-03-20T10:15:17.413Z,1025.14
2018-03-20T10:16:17.986Z,1024.98
2018-03-20T10:17:18.560Z,1025.04
2018-03-20T10:18:19.132Z,1024.88
2018-03-20T10:19:19.704Z,1024.99
2018-03-20T10:20:20.376Z,1024.95
2018-03-20T10:21:20.899Z,1024.96
2018-03-20T10:22:21.678Z,1024.96
2018-03-20T10:23:22.247Z,1024.95
2018-03-20T10:24:22.816Z,1025.00
2018-03-20T10:25:23.392Z,1024.98
2018-03-20T10:26:24.009Z,1024.95
2018-03-20T10:27:24.576Z,1024.89
2018-03-20T10:28:25.148Z,1024.87
2018-03-20T10:29:25.769Z,1024.73
2018-03-20T10:30:26.342Z,1024.47
2018-03-20T10:31:26.914Z,1024.54
2018-03-20T10:32:27.488Z,1024.49
2018-03-20T10:33:28.057Z,1024.67
2018-03-20T10:34:28.635Z,1024.73
2018-03-20T10:35:29.202Z,1024.88
2018-03-20T10:36:29.824Z,1025.04
2018-03-20T10:37:30.397Z,1024.98
2018-03-20T10:38:30.970Z,1024.89
2018-03-20T10:39:31.591Z,1024.96
2018-03-20T10:40:32.161Z,1024.95
2018-03-20T10:41:32.741Z,1024.96
2018-03-20T10:42:33.306Z,1024.91
2018-03-20T10:43:33.878Z,1024.85
2018-03-20T10:44:34.452Z,1025.04
2018-03-20T10:45:35.074Z,1025.09
2018-03-20T10:46:35.645Z,1025.01
2018-03-20T10:47:36.218Z,1025.04
2018-03-20T10:48:36.791Z,1025.05
2018-03-20T10:49:37.364Z,1025.20
2018-03-20T10:50:37.938Z,1025.22
2018-03-20T10:51:38.508Z,1025.30
2018-03-20T10:52:39.131Z,1025.23
2018-03-20T10:53:39.705Z,1025.30
2018-03-20T10:54:40.278Z,1025.19
2018-03-20T10:55:40.901Z,1025.36
2018-03-20T10:56:41.525Z,1025.28
2018-03-20T10:57:42.097Z,1025.26
2018-03-20T10:58:42.677Z,1025.22
2018-03-20T10:59:43.294Z,1025.25
2018-03-20T11:00:43.869Z,1025.24
2018-03-20T11:01:44.440Z,1025.26
2018-03-20T11:02:45.012Z,1025.35
2018-03-20T11:03:45.585Z,1025.25
2018-03-20T11:04:46.203Z,1025.30
2018-03-20T11:05:46.775Z,1025.34
2018-03-20T11:06:47.347Z,1025.37
2018-03-20T11:07:47.920Z,1025.29
2018-03-20T11:08:48.493Z,1025.31
2018-03-20T11:09:49.065Z,1025.34
2018-03-20T11:10:49.638Z,1025.40
2018-03-20T11:11:50.260Z,1025.44
2018-03-20T11:12:50.833Z,1025.39
2018-03-20T11:13:51.407Z,1025.40
2018-03-20T11:14:51.979Z,1025.48
2018-03-20T11:15:52.552Z,1025.46
2018-03-20T11:16:53.123Z,1025.51
2018-03-20T11:17:53.704Z,1025.52
2018-03-20T11:18:54.272Z,1025.57
2018-03-20T11:19:54.993Z,1025.43
2018-03-20T11:20:55.716Z,1025.49
2018-03-20T11:21:56.288Z,1025.42
2018-03-20T11:22:56.861Z,1025.58
2018-03-20T11:23:57.435Z,1025.49
2018-03-20T11:24:58.007Z,1025.58
2018-03-20T11:25:58.581Z,1025.58
2018-03-20T11:26:59.154Z,1025.57
2018-03-20T11:27:59.730Z,1025.58
2018-03-20T11:29:00.303Z,1025.60
2018-03-20T11:30:00.873Z,1025.60
2018-03-20T11:31:01.496Z,1025.63
2018-03-20T11:32:02.088Z,1025.67
2018-03-20T11:33:02.642Z,1025.72
2018-03-20T11:34:03.215Z,1025.71
2018-03-20T11:35:03.786Z,1025.74
2018-03-20T11:36:04.359Z,1025.76
2018-03-20T11:37:04.940Z,1025.84
2018-03-20T11:38:05.549Z,1025.79
2018-03-20T11:39:06.122Z,1025.68
2018-03-20T11:40:06.744Z,1025.58
2018-03-20T11:41:07.365Z,1025.66
2018-03-20T11:42:07.938Z,1025.67
2018-03-20T11:43:08.561Z,1025.69
2018-03-20T11:44:09.138Z,1025.62
2018-03-20T11:45:09.750Z,1025.67
2018-03-20T11:46:10.320Z,1025.59
2018-03-20T11:47:10.894Z,1025.56
2018-03-20T11:48:11.465Z,1025.60
2018-03-20T11:49:12.036Z,1025.68
2018-03-20T11:50:12.611Z,1025.69
2018-03-20T11:51:13.184Z,1025.62
2018-03-20T11:52:13.756Z,1025.54
2018-03-20T11:53:14.330Z,1025.57
2018-03-20T11:54:14.902Z,1025.64
2018-03-20T11:55:15.478Z,1025.60
2018-03-20T11:56:16.102Z,1025.60
2018-03-20T11:57:16.729Z,1025.54
2018-03-20T11:58:17.348Z,1025.58
2018-03-20T11:59:17.923Z,1025.61
2018-03-20T12:00:18.495Z,1025.52
2018-03-20T12:01:19.067Z,1025.54
2018-03-20T12:02:19.645Z,1025.55
2018-03-20T12:03:20.214Z,1025.50
2018-03-20T12:04:20.788Z,1025.55
2018-03-20T12:05:21.362Z,1025.52
2018-03-20T12:06:21.933Z,1025.53
2018-03-20T12:07:22.507Z,1025.55
2018-03-20T12:08:23.078Z,1025.57
2018-03-20T12:09:23.653Z,1025.56
2018-03-20T12:10:24.226Z,1025.53
2018-03-20T12:11:24.848Z,1025.52
2018-03-20T12:12:25.421Z,1025.49